Time,TemperatureF,DewpointF,PressureIn,WindDirection,WindDirectionDegrees,WindSpeedMPH,WindSpeedGustMPH,Humidity,HourlyPrecipIn,Conditions,Clouds,dailyrainin,SoftwareType,DateUTC
2017-05-26 00:03:00,54.1,52.4,29.95,NW,306,0.0,0.0,94,0.00,,---,0.00,VWS V14.01,2017-05-26 04:03:00,
2017-05-26 00:08:00,54.0,52.3,29.95,NW,306,0.0,0.0,94,0.00,,---,0.00,VWS V14.01,2017-05-26 04:08:00,
2017-05-26 00:13:00,53.9,52.2,29.95,NW,306,0.0,0.0,94,0.00,,---,0.00,VWS V14.01,2017-05-26 04:13:00,
2017-05-26 00:18:00,53.6,51.9,29.95,NW,306,0.0,0.0,94,0.00,,---,0.00,VWS V14.01,2017-05-26 04:18:00,
2017-05-26 00:23:00,53.5,51.8,29.95,NW,306,0.0,0.0,94,0.00,,---,0.00,VWS V14.01,2017-05-26 04:23:00,
2017-05-26 00:28:00,53.4,52.0,29.95,NW,306,0.0,0.0,95,0.00,,---,0.00,VWS V14.01,2017-05-26 04:28:00,
2017-05-26 00:33:00,53.4,52.0,29.95,NW,306,0.0,0.0,95,0.00,,---,0.00,VWS V14.01,2017-05-26 04:33:00,
2017-05-26 00:38:00,53.3,51.9,29.95,NW,306,0.0,0.0,95,0.00,,---,0.00,VWS V14.01,2017-05-26 04:38:00,
2017-05-26 00:43:00,53.2,51.8,29.96,NW,306,0.0,0.0,95,0.00,,---,0.00,VWS V14.01,2017-05-26 04:43:00,
2017-05-26 00:53:00,52.9,51.5,29.96,NW,306,0.0,0.0,95,0.00,,---,0.00,VWS V14.01,2017-05-26 04:53:00,
2017-05-26 00:58:00,52.9,51.8,29.96,NW,306,0.0,0.0,96,0.00,,---,0.00,VWS V14.01,2017-05-26 04:58:00,
2017-05-26 01:03:00,52.9,51.8,29.96,NW,306,0.0,1.0,96,0.00,,---,0.00,VWS V14.01,2017-05-26 05:03:00,
2017-05-26 01:08:00,53.2,52.1,29.96,NW,306,1.0,2.0,96,0.00,,---,0.00,VWS V14.01,2017-05-26 05:08:00,
2017-05-26 01:13:00,53.4,52.3,29.96,NW,306,0.0,0.0,96,0.00,,---,0.00,VWS V14.01,2017-05-26 05:13:00,
2017-05-26 01:18:00,53.3,52.2,29.96,NW,306,0.0,0.0,96,0.00,,---,0.00,VWS V14.01,2017-05-26 05:18:00,
2017-05-26 01:23:00,53.2,52.1,29.96,NW,306,0.0,0.0,96,0.00,,---,0.00,VWS V14.01,2017-05-26 05:23:00,
2017-05-26 01:28:00,53.2,52.1,29.96,NW,306,0.0,0.0,96,0.00,,---,0.00,VWS V14.01,2017-05-26 05:28:00,
2017-05-26 01:33:00,53.3,52.2,29.97,NW,306,0.0,0.0,96,0.00,,---,0.00,VWS V14.01,2017-05-26 05:33:00,
2017-05-26 01:38:00,53.4,52.3,29.97,NW,306,0.0,0.0,96,0.00,,---,0.00,VWS V14.01,2017-05-26 05:38:00,
2017-05-26 01:43:00,53.6,52.5,29.97,NW,306,0.0,4.0,96,0.00,,---,0.00,VWS V14.01,2017-05-26 05:43:00,
2017-05-26 01:48:00,53.8,52.7,29.97,NW,306,1.0,1.0,96,0.00,,---,0.00,VWS V14.01,2017-05-26 05:48:00,
2017-05-26 01:53:00,54.1,53.0,29.97,NW,306,0.0,2.0,96,0.00,,---,0.00,VWS V14.01,2017-05-26 05:53:00,
2017-05-26 01:54:00,54.1,53.0,29.97,NW,306,2.0,2.0,96,0.00,,---,0.00,VWS V14.01,2017-05-26 05:54:00,
2017-05-26 01:59:00,54.6,53.2,29.97,NW,306,0.0,2.0,95,0.00,,---,0.00,VWS V14.01,2017-05-26 05:59:00,
2017-05-26 02:03:00,54.8,53.4,29.97,NW,306,0.0,1.0,95,0.00,,---,0.00,VWS V14.01,2017-05-26 06:03:00,
2017-05-26 02:08:00,55.0,53.3,29.97,NW,306,0.0,0.0,94,0.00,,---,0.00,VWS V14.01,2017-05-26 06:08:00,
2017-05-26 02:13:00,55.3,53.3,29.97,NW,306,0.0,0.0,93,0.00,,---,0.00,VWS V14.01,2017-05-26 06:13:00,
2017-05-26 02:18:00,55.3,53.3,29.98,NW,306,0.0,0.0,93,0.00,,---,0.00,VWS V14.01,2017-05-26 06:18:00,
2017-05-26 02:23:00,55.2,53.2,29.98,NW,306,0.0,0.0,93,0.00,,---,0.00,VWS V14.01,2017-05-26 06:23:00,
2017-05-26 02:29:00,54.9,52.9,29.97,NW,306,0.0,0.0,93,0.00,,---,0.00,VWS V14.01,2017-05-26 06:29:00,
2017-05-26 02:33:00,54.5,52.5,29.98,NW,306,0.0,0.0,93,0.00,,---,0.00,VWS V14.01,2017-05-26 06:33:00,
2017-05-26 02:38:00,54.2,52.2,29.98,NW,306,0.0,0.0,93,0.00,,---,0.00,VWS V14.01,2017-05-26 06:38:00,
2017-05-26 02:43:00,54.0,52.3,29.98,NW,306,0.0,0.0,94,0.00,,---,0.00,VWS V14.01,2017-05-26 06:43:00,
2017-05-26 02:48:00,53.8,52.1,29.98,NW,306,0.0,0.0,94,0.00,,---,0.00,VWS V14.01,2017-05-26 06:48:00,
2017-05-26 02:53:00,53.6,51.9,29.98,NW,306,0.0,0.0,94,0.00,,---,0.00,VWS V14.01,2017-05-26 06:53:00,
2017-05-26 02:58:00,53.4,52.0,29.98,NW,306,0.0,0.0,95,0.00,,---,0.00,VWS V14.01,2017-05-26 06:58:00,
2017-05-26 03:03:00,53.0,51.3,29.99,NW,306,0.0,0.0,94,0.00,,---,0.00,VWS V14.01,2017-05-26 07:03:00,
2017-05-26 03:08:00,52.6,50.9,29.98,NW,306,0.0,0.0,94,0.00,,---,0.00,VWS V14.01,2017-05-26 07:08:00,
2017-05-26 03:13:00,52.2,50.5,29.98,NW,306,0.0,0.0,94,0.00,,---,0.00,VWS V14.01,2017-05-26 07:13:00,
2017-05-26 03:18:00,51.9,50.5,29.98,NW,306,0.0,0.0,95,0.00,,---,0.00,VWS V14.01,2017-05-26 07:18:00,
2017-05-26 03:23:00,51.7,50.3,29.99,NW,306,0.0,0.0,95,0.00,,---,0.00,VWS V14.01,2017-05-26 07:23:00,
2017-05-26 03:28:00,51.4,50.0,29.99,NW,306,0.0,0.0,95,0.00,,---,0.00,VWS V14.01,2017-05-26 07:28:00,
2017-05-26 03:33:00,51.3,49.9,29.99,NW,306,0.0,0.0,95,0.00,,---,0.00,VWS V14.01,2017-05-26 07:33:00,
2017-05-26 03:38:00,51.2,49.8,29.99,NW,306,0.0,0.0,95,0.00,,---,0.00,VWS V14.01,2017-05-26 07:38:00,
2017-05-26 03:43:00,51.1,49.7,29.99,NW,306,0.0,0.0,95,0.00,,---,0.00,VWS V14.01,2017-05-26 07:43:00,
2017-05-26 03:48:00,50.9,49.8,29.99,NW,306,0.0,0.0,96,0.00,,---,0.00,VWS V14.01,2017-05-26 07:48:00,
2017-05-26 03:53:00,50.8,49.4,29.99,NW,306,0.0,0.0,95,0.00,,---,0.00,VWS V14.01,2017-05-26 07:53:00,
2017-05-26 03:58:00,50.6,49.5,29.99,NW,306,0.0,0.0,96,0.00,,---,0.00,VWS V14.01,2017-05-26 07:58:00,
2017-05-26 04:03:00,50.5,49.4,29.99,NW,306,0.0,0.0,96,0.00,,---,0.00,VWS V14.01,2017-05-26 08:03:00,
2017-05-26 04:08:00,50.4,49.3,30.00,NW,306,0.0,0.0,96,0.00,,---,0.00,VWS V14.01,2017-05-26 08:08:00,
2017-05-26 04:13:00,50.4,49.3,30.00,NW,306,0.0,0.0,96,0.00,,---,0.00,VWS V14.01,2017-05-26 08:13:00,
2017-05-26 04:18:00,50.3,49.2,30.00,NW,306,0.0,0.0,96,0.00,,---,0.00,VWS V14.01,2017-05-26 08:18:00,
2017-05-26 04:23:00,50.4,49.3,30.00,NW,306,0.0,0.0,96,0.00,,---,0.00,VWS V14.01,2017-05-26 08:23:00,
2017-05-26 04:28:00,50.4,49.3,30.00,NW,306,0.0,0.0,96,0.00,,---,0.00,VWS V14.01,2017-05-26 08:28:00,
2017-05-26 04:33:00,50.4,49.3,30.00,NW,306,0.0,0.0,96,0.00,,---,0.00,VWS V14.01,2017-05-26 08:33:00,
2017-05-26 04:38:00,50.4,49.3,30.00,NW,306,0.0,0.0,96,0.00,,---,0.00,VWS V14.01,2017-05-26 08:38:00,
2017-05-26 04:43:00,50.6,49.5,30.00,NW,306,0.0,0.0,96,0.00,,---,0.00,VWS V14.01,2017-05-26 08:43:00,
2017-05-26 04:48:00,50.7,49.9,30.00,NW,306,0.0,0.0,97,0.00,,---,0.00,VWS V14.01,2017-05-26 08:48:00,
2017-05-26 04:53:00,50.7,49.9,30.00,NW,306,0.0,0.0,97,0.00,,---,0.00,VWS V14.01,2017-05-26 08:53:00,
2017-05-26 04:58:00,50.6,49.8,30.01,NW,306,0.0,0.0,97,0.00,,---,0.00,VWS V14.01,2017-05-26 08:58:00,
2017-05-26 05:03:00,50.5,49.7,30.00,NW,306,0.0,0.0,97,0.00,,---,0.00,VWS V14.01,2017-05-26 09:03:00,
2017-05-26 05:08:00,50.3,49.5,30.01,NW,306,0.0,0.0,97,0.00,,---,0.00,VWS V14.01,2017-05-26 09:08:00,
2017-05-26 05:13:00,50.1,49.3,30.01,NW,306,0.0,0.0,97,0.00,,---,0.00,VWS V14.01,2017-05-26 09:13:00,
2017-05-26 05:18:00,49.9,48.8,30.01,NW,306,0.0,0.0,96,0.00,,---,0.00,VWS V14.01,2017-05-26 09:18:00,
2017-05-26 05:23:00,49.8,48.7,30.01,NW,306,0.0,0.0,96,0.00,,---,0.00,VWS V14.01,2017-05-26 09:23:00,
2017-05-26 05:28:00,49.6,48.8,30.01,NW,306,0.0,0.0,97,0.00,,---,0.00,VWS V14.01,2017-05-26 09:28:00,
2017-05-26 05:33:00,49.5,48.7,30.02,NW,306,0.0,0.0,97,0.00,,---,0.00,VWS V14.01,2017-05-26 09:33:00,
2017-05-26 05:38:00,49.4,48.3,30.02,NW,306,0.0,0.0,96,0.00,,---,0.00,VWS V14.01,2017-05-26 09:38:00,
2017-05-26 05:43:00,49.2,48.1,30.02,NW,306,0.0,0.0,96,0.00,,---,0.00,VWS V14.01,2017-05-26 09:43:00,
2017-05-26 05:48:00,49.0,47.9,30.02,NW,306,0.0,0.0,96,0.00,,---,0.00,VWS V14.01,2017-05-26 09:48:00,
2017-05-26 05:53:00,48.9,48.1,30.02,NW,306,0.0,0.0,97,0.00,,---,0.00,VWS V14.01,2017-05-26 09:53:00,
2017-05-26 05:55:00,48.9,48.1,30.02,NW,306,0.0,0.0,97,0.00,,---,0.00,VWS V14.01,2017-05-26 09:55:00,
2017-05-26 06:00:00,48.8,48.0,30.03,NW,306,0.0,0.0,97,0.00,,---,0.00,VWS V14.01,2017-05-26 10:00:00,
2017-05-26 06:05:00,48.8,48.0,30.03,NW,306,0.0,0.0,97,0.00,,---,0.00,VWS V14.01,2017-05-26 10:05:00,
2017-05-26 06:10:00,48.7,47.9,30.03,NW,306,0.0,0.0,97,0.00,,---,0.00,VWS V14.01,2017-05-26 10:10:00,
2017-05-26 06:15:00,48.7,47.9,30.03,NW,306,0.0,0.0,97,0.00,,---,0.00,VWS V14.01,2017-05-26 10:15:00,
2017-05-26 06:20:00,48.6,47.8,30.04,NW,306,0.0,0.0,97,0.00,,---,0.00,VWS V14.01,2017-05-26 10:20:00,
2017-05-26 06:25:00,48.6,47.8,30.04,NW,306,0.0,0.0,97,0.00,,---,0.00,VWS V14.01,2017-05-26 10:25:00,
2017-05-26 06:30:00,48.5,47.7,30.03,NW,306,0.0,0.0,97,0.00,,---,0.00,VWS V14.01,2017-05-26 10:30:00,
2017-05-26 06:35:00,48.5,47.7,30.04,NW,306,0.0,0.0,97,0.00,,---,0.00,VWS V14.01,2017-05-26 10:35:00,
2017-05-26 06:40:00,48.5,47.7,30.04,NW,306,0.0,0.0,97,0.00,,---,0.00,VWS V14.01,2017-05-26 10:40:00,
2017-05-26 06:45:00,48.4,47.6,30.04,NW,306,0.0,0.0,97,0.00,,---,0.00,VWS V14.01,2017-05-26 10:45:00,
2017-05-26 06:50:00,48.5,47.7,30.04,NW,306,0.0,0.0,97,0.00,,---,0.00,VWS V14.01,2017-05-26 10:50:00,
2017-05-26 06:55:00,48.5,47.7,30.05,NW,306,0.0,0.0,97,0.00,,---,0.00,VWS V14.01,2017-05-26 10:55:00,
2017-05-26 07:00:00,48.6,47.8,30.05,NW,306,0.0,0.0,97,0.00,,---,0.00,VWS V14.01,2017-05-26 11:00:00,
2017-05-26 07:05:00,48.7,47.9,30.05,NW,306,0.0,0.0,97,0.00,,---,0.00,VWS V14.01,2017-05-26 11:05:00,
2017-05-26 07:10:00,48.8,48.0,30.05,NW,306,0.0,0.0,97,0.00,,---,0.00,VWS V14.01,2017-05-26 11:10:00,
2017-05-26 07:15:00,49.1,48.3,30.05,NW,306,0.0,0.0,97,0.00,,---,0.00,VWS V14.01,2017-05-26 11:15:00,
2017-05-26 07:20:00,49.2,48.4,30.06,NW,306,0.0,0.0,97,0.00,,---,0.00,VWS V14.01,2017-05-26 11:20:00,
2017-05-26 07:25:00,49.6,48.8,30.06,NW,306,0.0,0.0,97,0.00,,---,0.00,VWS V14.01,2017-05-26 11:25:00,
2017-05-26 07:30:00,50.1,49.3,30.06,NW,306,0.0,0.0,97,0.00,,---,0.00,VWS V14.01,2017-05-26 11:30:00,
2017-05-26 07:35:00,50.6,49.8,30.06,NW,306,0.0,0.0,97,0.00,,---,0.00,VWS V14.01,2017-05-26 11:35:00,
2017-05-26 07:40:00,51.2,50.4,30.06,NW,306,0.0,0.0,97,0.00,,---,0.00,VWS V14.01,2017-05-26 11:40:00,
2017-05-26 07:45:00,51.7,50.9,30.05,NW,306,0.0,0.0,97,0.00,,---,0.00,VWS V14.01,2017-05-26 11:45:00,
2017-05-26 07:50:00,52.2,51.7,30.06,NW,306,0.0,0.0,98,0.00,,---,0.00,VWS V14.01,2017-05-26 11:50:00,
2017-05-26 07:55:00,52.8,52.0,30.05,NW,306,0.0,0.0,97,0.00,,---,0.00,VWS V14.01,2017-05-26 11:55:00,
2017-05-26 08:00:00,53.4,52.6,30.06,NW,306,0.0,0.0,97,0.00,,---,0.00,VWS V14.01,2017-05-26 12:00:00,
2017-05-26 08:05:00,54.0,53.5,30.06,NW,306,0.0,0.0,98,0.00,,---,0.00,VWS V14.01,2017-05-26 12:05:00,
2017-05-26 08:10:00,54.4,53.8,30.06,NW,306,0.0,0.0,98,0.00,,---,0.00,VWS V14.01,2017-05-26 12:10:00,
2017-05-26 08:15:00,54.9,54.3,30.06,NW,306,0.0,0.0,98,0.00,,---,0.00,VWS V14.01,2017-05-26 12:15:00,
2017-05-26 08:20:00,55.5,55.0,30.06,NW,306,0.0,0.0,98,0.00,,---,0.00,VWS V14.01,2017-05-26 12:20:00,
2017-05-26 08:25:00,56.1,55.5,30.07,NW,306,0.0,0.0,98,0.00,,---,0.00,VWS V14.01,2017-05-26 12:25:00,
2017-05-26 08:30:00,56.7,56.1,30.07,NW,306,1.0,2.0,98,0.00,,---,0.00,VWS V14.01,2017-05-26 12:30:00,
2017-05-26 08:35:00,57.5,56.9,30.07,NW,306,2.0,4.0,98,0.00,,---,0.00,VWS V14.01,2017-05-26 12:35:00,
2017-05-26 08:40:00,58.3,57.7,30.07,NW,306,0.0,0.0,98,0.00,,---,0.00,VWS V14.01,2017-05-26 12:40:00,
2017-05-26 08:45:00,59.0,58.4,30.07,NW,306,0.0,1.0,98,0.00,,---,0.00,VWS V14.01,2017-05-26 12:45:00,
2017-05-26 08:50:00,59.7,58.8,30.07,NW,306,0.0,0.0,97,0.00,,---,0.00,VWS V14.01,2017-05-26 12:50:00,
2017-05-26 08:55:00,60.4,58.7,30.07,NW,306,0.0,2.0,94,0.00,,---,0.00,VWS V14.01,2017-05-26 12:55:00,
2017-05-26 09:00:00,61.2,58.6,30.07,NW,306,0.0,2.0,91,0.00,,---,0.00,VWS V14.01,2017-05-26 13:00:00,
2017-05-26 09:05:00,62.0,58.7,30.08,NW,306,0.0,1.0,89,0.00,,---,0.00,VWS V14.01,2017-05-26 13:05:00,
2017-05-26 09:10:00,62.7,58.8,30.08,NW,306,4.0,4.0,87,0.00,,---,0.00,VWS V14.01,2017-05-26 13:10:00,
2017-05-26 09:15:00,63.3,59.0,30.08,NW,306,0.0,0.0,86,0.00,,---,0.00,VWS V14.01,2017-05-26 13:15:00,
2017-05-26 09:20:00,64.0,58.4,30.08,WSW,252,1.0,6.0,82,0.00,,---,0.00,VWS V14.01,2017-05-26 13:20:00,
2017-05-26 09:25:00,64.5,58.9,30.07,West,274,0.0,0.0,82,0.00,,---,0.00,VWS V14.01,2017-05-26 13:25:00,
2017-05-26 09:30:00,65.2,58.9,30.07,NW,313,0.0,5.0,80,0.00,,---,0.00,VWS V14.01,2017-05-26 13:30:00,
2017-05-26 09:35:00,66.0,59.3,30.07,West,268,1.0,1.0,79,0.00,,---,0.00,VWS V14.01,2017-05-26 13:35:00,
2017-05-26 09:40:00,66.6,59.5,30.07,West,259,4.0,4.0,78,0.00,,---,0.00,VWS V14.01,2017-05-26 13:40:00,
2017-05-26 09:45:00,66.8,59.0,30.08,WNW,300,5.0,5.0,76,0.00,,---,0.00,VWS V14.01,2017-05-26 13:45:00,
2017-05-26 09:50:00,67.2,60.1,30.08,NNW,341,0.0,5.0,78,0.00,,---,0.00,VWS V14.01,2017-05-26 13:50:00,
2017-05-26 09:55:00,67.7,59.1,30.08,NW,321,0.0,2.0,74,0.00,,---,0.00,VWS V14.01,2017-05-26 13:55:00,
2017-05-26 10:00:00,68.0,59.4,30.08,West,261,1.0,3.0,74,0.00,,---,0.00,VWS V14.01,2017-05-26 14:00:00,
2017-05-26 10:05:00,68.2,59.2,30.08,WNW,292,5.0,7.0,73,0.00,,---,0.00,VWS V14.01,2017-05-26 14:05:00,
2017-05-26 10:10:00,68.1,58.3,30.08,NW,319,4.0,9.0,71,0.00,,---,0.00,VWS V14.01,2017-05-26 14:10:00,
2017-05-26 10:15:00,68.2,58.0,30.08,NW,315,0.0,9.0,70,0.00,,---,0.00,VWS V14.01,2017-05-26 14:15:00,
2017-05-26 10:20:00,68.6,58.8,30.07,West,280,0.0,7.0,71,0.00,,---,0.00,VWS V14.01,2017-05-26 14:20:00,
2017-05-26 10:25:00,68.6,58.8,30.07,WNW,298,6.0,7.0,71,0.00,,---,0.00,VWS V14.01,2017-05-26 14:25:00,
2017-05-26 10:30:00,69.0,59.2,30.07,West,275,0.0,1.0,71,0.00,,---,0.00,VWS V14.01,2017-05-26 14:30:00,
2017-05-26 10:35:00,69.3,58.7,30.08,NW,320,0.0,7.0,69,0.00,,---,0.00,VWS V14.01,2017-05-26 14:35:00,
2017-05-26 10:40:00,69.5,58.1,30.07,WNW,290,0.0,8.0,67,0.00,,---,0.00,VWS V14.01,2017-05-26 14:40:00,